createdAt,value
2018-06-12T00:00:04.316Z,7.70
2018-06-12T00:02:32.899Z,8.13
2018-06-12T00:05:01.580Z,8.57
2018-06-12T00:07:29.957Z,8.97
2018-06-12T00:09:58.334Z,9.10
2018-06-12T00:12:26.799Z,7.83
2018-06-12T00:14:55.167Z,7.13
2018-06-12T00:17:23.474Z,7.57
2018-06-12T00:19:51.845Z,7.43
2018-06-12T00:22:20.436Z,6.23
2018-06-12T00:24:48.922Z,6.50
2018-06-12T00:27:17.513Z,6.20
2018-06-12T00:29:45.977Z,6.17
2018-06-12T00:32:14.561Z,6.23
2018-06-12T00:34:43.024Z,6.13
2018-06-12T00:37:11.303Z,6.70
2018-06-12T00:39:39.796Z,6.83
2018-06-12T00:42:08.280Z,5.83
2018-06-12T00:44:36.731Z,6.20
2018-06-12T00:47:05.111Z,6.87
2018-06-12T00:49:33.613Z,6.57
2018-06-12T00:52:02.096Z,6.83
2018-06-12T00:54:30.578Z,5.70
2018-06-12T00:57:04.862Z,6.30
2018-06-12T00:59:33.278Z,5.70
2018-06-12T01:02:01.727Z,5.40
2018-06-12T01:04:30.232Z,5.50
2018-06-12T01:06:58.706Z,6.13
2018-06-12T01:09:27.191Z,5.73
2018-06-12T01:11:55.886Z,5.40
2018-06-12T01:15:00.723Z,6.20
2018-06-12T01:17:28.817Z,5.53
2018-06-12T01:19:58.687Z,5.67
2018-06-12T01:22:27.078Z,6.03
2018-06-12T01:24:55.557Z,5.70
2018-06-12T01:27:23.934Z,5.90
2018-06-12T01:29:52.222Z,6.00
2018-06-12T01:32:20.695Z,6.13
2018-06-12T01:34:49.176Z,5.53
2018-06-12T01:37:17.657Z,5.60
2018-06-12T01:39:46.235Z,6.37
2018-06-12T01:42:14.519Z,6.30
2018-06-12T01:44:42.991Z,6.80
2018-06-12T01:47:11.459Z,6.00
2018-06-12T01:49:39.848Z,6.07
2018-06-12T01:52:08.330Z,6.27
2018-06-12T01:54:36.605Z,6.10
2018-06-12T01:57:05.084Z,6.03
2018-06-12T01:59:33.449Z,5.40
2018-06-12T02:02:01.900Z,5.30
2018-06-12T02:04:30.426Z,6.07
2018-06-12T02:06:58.907Z,5.77
2018-06-12T02:09:27.493Z,5.87
2018-06-12T02:11:55.971Z,6.33
2018-06-12T02:14:24.434Z,5.83
2018-06-12T02:16:52.809Z,5.67
2018-06-12T02:19:21.129Z,5.40
2018-06-12T02:21:49.485Z,6.03
2018-06-12T02:24:17.965Z,4.87
2018-06-12T02:26:46.595Z,4.90
2018-06-12T02:29:15.010Z,5.70
2018-06-12T02:31:43.610Z,6.07
2018-06-12T02:34:12.088Z,5.60
2018-06-12T02:36:40.574Z,5.53
2018-06-12T02:39:08.937Z,5.67
2018-06-12T02:41:37.537Z,6.67
2018-06-12T02:44:05.906Z,5.90
2018-06-12T02:46:34.493Z,5.70
2018-06-12T02:49:02.873Z,4.93
2018-06-12T02:51:31.233Z,5.40
2018-06-12T02:53:59.672Z,5.23
2018-06-12T02:56:28.109Z,4.87
2018-06-12T02:58:56.481Z,5.27
2018-06-12T03:01:25.071Z,4.97
2018-06-12T03:03:53.551Z,4.60
2018-06-12T03:06:22.030Z,4.77
2018-06-12T03:08:50.515Z,4.63
2018-06-12T03:11:18.880Z,5.67
2018-06-12T03:13:47.369Z,8.43
2018-06-12T03:16:15.850Z,8.50
2018-06-12T03:18:44.330Z,7.17
2018-06-12T03:21:12.915Z,5.47
2018-06-12T03:23:41.500Z,4.43
2018-06-12T03:26:09.768Z,4.47
2018-06-12T03:28:38.355Z,4.20
2018-06-12T03:31:06.832Z,4.97
2018-06-12T03:33:35.418Z,4.20
2018-06-12T03:36:04.004Z,4.40
2018-06-12T03:38:32.590Z,4.40
2018-06-12T03:41:07.621Z,5.17
2018-06-12T03:43:36.103Z,4.23
2018-06-12T03:46:04.696Z,4.77
2018-06-12T03:48:33.122Z,4.03
2018-06-12T03:51:01.551Z,4.63
2018-06-12T03:53:30.130Z,4.13
2018-06-12T03:55:58.576Z,4.80
2018-06-12T03:58:27.289Z,4.60
2018-06-12T04:00:55.874Z,5.63
2018-06-12T04:03:24.246Z,5.73
2018-06-12T04:05:52.938Z,6.73
2018-06-12T04:08:21.398Z,6.80
2018-06-12T04:10:50.002Z,6.50
2018-06-12T04:13:18.582Z,7.07
2018-06-12T04:15:46.975Z,6.43
2018-06-12T04:18:15.544Z,6.57
2018-06-12T04:20:43.908Z,6.90
2018-06-12T04:23:12.283Z,7.70
2018-06-12T04:25:40.681Z,7.00
2018-06-12T04:28:09.263Z,7.47
2018-06-12T04:30:37.739Z,8.67
2018-06-12T04:33:06.118Z,8.00
2018-06-12T04:35:34.701Z,8.70
2018-06-12T04:38:03.384Z,9.03
2018-06-12T04:40:31.779Z,9.53
2018-06-12T04:43:00.571Z,10.07
2018-06-12T04:45:28.914Z,8.83
2018-06-12T04:47:57.283Z,9.43
2018-06-12T04:50:25.585Z,9.97
2018-06-12T04:52:54.043Z,11.30
2018-06-12T04:55:22.548Z,11.63
2018-06-12T04:57:50.920Z,13.77
2018-06-12T05:00:19.402Z,18.73
2018-06-12T05:02:47.991Z,25.33
2018-06-12T05:05:16.465Z,22.20
2018-06-12T05:07:44.796Z,21.27
2018-06-12T05:10:13.125Z,17.70
2018-06-12T05:12:41.603Z,14.13
2018-06-12T05:15:10.086Z,14.33
2018-06-12T05:17:38.444Z,12.67
2018-06-12T05:20:06.887Z,12.73
2018-06-12T05:22:35.320Z,13.03
2018-06-12T05:25:03.702Z,13.37
2018-06-12T05:27:32.177Z,18.97
2018-06-12T05:30:00.661Z,18.80
2018-06-12T05:32:29.247Z,19.23
2018-06-12T05:34:57.705Z,19.27
2018-06-12T05:37:26.177Z,17.23
2018-06-12T05:39:54.478Z,18.57
2018-06-12T05:42:23.166Z,18.20
2018-06-12T05:44:51.546Z,18.73
2018-06-12T05:47:20.228Z,18.73
2018-06-12T05:49:48.607Z,19.23
2018-06-12T05:52:17.085Z,18.43
2018-06-12T05:54:45.772Z,19.53
2018-06-12T05:57:14.251Z,18.60
2018-06-12T05:59:42.739Z,16.97
2018-06-12T06:02:11.217Z,16.30
2018-06-12T06:04:39.898Z,13.23
2018-06-12T06:07:08.477Z,11.80
2018-06-12T06:09:36.832Z,10.10
2018-06-12T06:12:05.341Z,9.97
2018-06-12T06:14:33.820Z,11.30
2018-06-12T06:17:02.544Z,11.97
2018-06-12T06:19:30.886Z,10.60
2018-06-12T06:21:59.470Z,10.47
2018-06-12T06:24:28.055Z,9.90
2018-06-12T06:26:56.429Z,9.07
2018-06-12T06:29:24.912Z,8.30
2018-06-12T06:31:53.514Z,10.40
2018-06-12T06:34:21.975Z,9.13
2018-06-12T06:36:50.454Z,8.40
2018-06-12T06:39:18.934Z,7.93
2018-06-12T06:41:47.418Z,7.07
2018-06-12T06:44:15.989Z,7.10
2018-06-12T06:46:44.583Z,6.77
2018-06-12T06:49:13.168Z,6.57
2018-06-12T06:51:41.748Z,6.60
2018-06-12T06:54:10.227Z,7.63
2018-06-12T06:56:38.592Z,8.33
2018-06-12T06:59:07.189Z,7.37
2018-06-12T07:01:35.669Z,7.83
2018-06-12T07:04:04.146Z,7.97
2018-06-12T07:06:32.610Z,8.07
2018-06-12T07:09:01.033Z,7.97
2018-06-12T07:11:29.591Z,10.90
2018-06-12T07:13:58.070Z,9.83
2018-06-12T07:16:26.548Z,9.30
2018-06-12T07:18:54.933Z,9.50
2018-06-12T07:21:24.331Z,9.50
2018-06-12T07:23:52.794Z,9.73
2018-06-12T07:26:22.257Z,10.13
2018-06-12T07:28:50.910Z,9.40
2018-06-12T07:34:04.629Z,9.13
2018-06-12T07:36:33.149Z,9.27
2018-06-12T07:39:01.793Z,8.63
2018-06-12T07:41:30.520Z,7.87
2018-06-12T07:43:59.279Z,8.27
2018-06-12T07:46:27.993Z,8.43
2018-06-12T07:48:56.679Z,8.03
2018-06-12T07:51:25.466Z,8.07
2018-06-12T07:53:54.250Z,8.80
2018-06-12T07:56:22.937Z,8.87
2018-06-12T07:58:51.795Z,7.63
2018-06-12T08:01:20.647Z,7.93
2018-06-12T08:03:49.160Z,7.73
2018-06-12T08:06:18.038Z,7.00
2018-06-12T08:08:46.674Z,6.27
2018-06-12T08:11:15.359Z,5.87
2018-06-12T08:13:43.942Z,6.00
2018-06-12T08:16:12.642Z,5.33
2018-06-12T08:18:42.212Z,5.67
2018-06-12T08:21:10.917Z,5.63
2018-06-12T08:23:39.629Z,5.53
2018-06-12T08:26:08.648Z,6.27
2018-06-12T08:28:37.383Z,5.60
2018-06-12T08:31:06.173Z,5.77
2018-06-12T08:33:34.758Z,5.67
2018-06-12T08:36:03.343Z,5.73
2018-06-12T08:38:32.023Z,5.57
2018-06-12T08:41:01.530Z,5.27
2018-06-12T08:43:30.111Z,6.17
2018-06-12T08:45:58.697Z,6.27
2018-06-12T08:48:27.379Z,6.23
2018-06-12T08:50:55.962Z,5.50
2018-06-12T08:53:24.543Z,5.97
2018-06-12T08:55:53.129Z,5.67
2018-06-12T08:58:21.799Z,6.87
2018-06-12T09:00:50.600Z,6.20
2018-06-12T09:03:20.109Z,6.33
2018-06-12T09:05:48.748Z,7.00
2018-06-12T09:08:17.479Z,6.87
2018-06-12T09:10:46.162Z,7.57
2018-06-12T09:13:14.700Z,8.53
2018-06-12T09:15:43.395Z,8.07
2018-06-12T09:18:11.980Z,8.10
2018-06-12T09:20:40.600Z,7.60
2018-06-12T09:23:09.282Z,8.00
2018-06-12T09:25:37.971Z,7.40
2018-06-12T09:28:06.548Z,7.80
2018-06-12T09:30:35.131Z,7.03
2018-06-12T09:33:03.815Z,6.23
2018-06-12T09:35:32.496Z,6.20
2018-06-12T09:38:01.092Z,6.83
2018-06-12T09:40:29.669Z,6.97
2018-06-12T09:42:58.505Z,6.97
2018-06-12T09:45:27.181Z,6.83
2018-06-12T09:47:55.822Z,6.90
2018-06-12T09:50:24.268Z,6.43
2018-06-12T09:52:52.809Z,6.60
2018-06-12T09:55:21.423Z,6.13
2018-06-12T09:57:50.228Z,6.57
2018-06-12T10:00:23.246Z,6.50
2018-06-12T10:02:51.934Z,6.70
2018-06-12T10:05:21.062Z,6.63
2018-06-12T10:07:49.662Z,6.03
2018-06-12T10:10:18.403Z,5.50
2018-06-12T10:12:47.083Z,4.87
2018-06-12T10:15:15.668Z,6.00
2018-06-12T10:17:44.361Z,5.20
2018-06-12T10:20:13.346Z,4.90
2018-06-12T10:22:41.971Z,5.27
2018-06-12T10:25:10.770Z,4.57
2018-06-12T10:27:39.401Z,5.17
2018-06-12T10:30:07.936Z,4.80
2018-06-12T10:32:36.875Z,4.20
2018-06-12T10:35:05.657Z,5.43
2018-06-12T10:37:34.245Z,5.00
2018-06-12T10:40:02.926Z,3.97
2018-06-12T10:42:31.716Z,4.20
2018-06-12T10:45:00.298Z,4.23
2018-06-12T10:47:29.129Z,4.27
2018-06-12T10:49:57.928Z,4.47
2018-06-12T10:52:26.639Z,4.57
2018-06-12T10:54:55.164Z,3.80
2018-06-12T10:57:23.762Z,3.50
2018-06-12T10:59:52.414Z,4.17
2018-06-12T11:02:21.094Z,3.70
2018-06-12T11:04:49.777Z,4.37
2018-06-12T11:07:19.273Z,3.63
2018-06-12T11:09:47.969Z,3.37
2018-06-12T11:12:16.588Z,3.30
2018-06-12T11:14:45.386Z,3.93
2018-06-12T11:17:14.057Z,3.67
2018-06-12T11:19:42.740Z,4.30
2018-06-12T11:22:11.502Z,3.50
2018-06-12T11:24:40.121Z,4.37
2018-06-12T11:27:08.977Z,4.20
2018-06-12T11:29:37.576Z,3.50
2018-06-12T11:32:06.449Z,3.70
2018-06-12T11:34:35.053Z,3.77
2018-06-12T11:37:04.225Z,4.10
2018-06-12T11:39:32.833Z,4.23
2018-06-12T11:42:01.347Z,3.73
2018-06-12T11:44:30.185Z,3.90
2018-06-12T11:46:58.870Z,3.43
2018-06-12T11:49:27.656Z,3.80
2018-06-12T11:51:56.170Z,3.97
2018-06-12T11:54:24.759Z,3.90
2018-06-12T11:56:53.406Z,3.63
2018-06-12T11:59:21.992Z,3.63
2018-06-12T12:01:50.629Z,3.47
2018-06-12T12:04:19.459Z,3.70
2018-06-12T12:06:48.050Z,4.03
2018-06-12T12:09:16.682Z,3.57
2018-06-12T12:11:45.310Z,3.10
2018-06-12T12:14:13.862Z,3.70
2018-06-12T12:16:42.452Z,4.33
2018-06-12T12:19:11.159Z,3.07
2018-06-12T12:21:39.692Z,2.90
2018-06-12T12:24:08.424Z,3.23
2018-06-12T12:26:36.987Z,3.00
2018-06-12T12:29:05.691Z,3.27
2018-06-12T12:31:35.307Z,3.80
2018-06-12T12:34:03.914Z,3.27
2018-06-12T12:36:32.577Z,4.03
2018-06-12T12:39:01.256Z,4.93
2018-06-12T12:41:29.838Z,3.50
2018-06-12T12:43:58.525Z,4.43
2018-06-12T12:46:27.414Z,3.37
2018-06-12T12:48:56.307Z,3.13
2018-06-12T12:51:31.645Z,3.53
2018-06-12T12:54:00.257Z,3.50
2018-06-12T12:56:28.950Z,7.90
2018-06-12T12:58:57.780Z,7.30
2018-06-12T13:01:26.333Z,6.70
2018-06-12T13:03:54.968Z,5.70
2018-06-12T13:06:23.546Z,7.80
2018-06-12T13:08:52.034Z,7.67
2018-06-12T13:11:20.557Z,7.23
2018-06-12T13:13:49.109Z,7.87
2018-06-12T13:16:17.673Z,11.50
2018-06-12T13:18:46.165Z,8.13
2018-06-12T13:21:16.119Z,8.43
2018-06-12T13:23:44.780Z,5.90
2018-06-12T13:26:13.442Z,6.30
2018-06-12T13:28:42.020Z,6.30
2018-06-12T13:31:10.607Z,6.10
2018-06-12T13:33:39.011Z,6.10
2018-06-12T13:36:07.668Z,5.90
2018-06-12T13:38:36.254Z,5.90
2018-06-12T13:41:04.827Z,7.37
2018-06-12T13:43:33.520Z,6.33
2018-06-12T13:46:02.011Z,7.00
2018-06-12T13:48:30.402Z,6.53
2018-06-12T13:50:58.958Z,5.90
2018-06-12T13:53:27.544Z,5.83
2018-06-12T13:55:55.859Z,6.97
2018-06-12T13:58:24.508Z,7.73
2018-06-12T14:00:52.985Z,6.97
2018-06-12T14:03:21.595Z,7.03
2018-06-12T14:05:50.156Z,6.97
2018-06-12T14:08:18.738Z,6.60
2018-06-12T14:10:47.324Z,5.90
2018-06-12T14:13:15.744Z,5.63
2018-06-12T14:15:44.390Z,5.47
2018-06-12T14:18:12.964Z,5.37
2018-06-12T14:20:41.561Z,4.90
2018-06-12T14:23:10.133Z,5.83
2018-06-12T14:25:38.710Z,6.20
2018-06-12T14:28:07.169Z,6.80
2018-06-12T14:30:35.773Z,6.60
2018-06-12T14:33:04.356Z,6.13
2018-06-12T14:35:32.852Z,6.20
2018-06-12T14:38:02.344Z,5.67
2018-06-12T14:40:30.939Z,7.17
2018-06-12T14:42:59.612Z,7.30
2018-06-12T14:45:28.042Z,6.40
2018-06-12T14:47:56.677Z,6.13
2018-06-12T14:50:25.263Z,4.97
2018-06-12T14:52:53.763Z,3.73
2018-06-12T14:55:22.322Z,3.00
2018-06-12T14:57:50.701Z,3.43
2018-06-12T15:00:19.288Z,3.33
2018-06-12T15:02:47.788Z,3.20
2018-06-12T15:05:16.470Z,3.03
2018-06-12T15:07:45.045Z,3.10
2018-06-12T15:10:14.555Z,2.63
2018-06-12T15:12:43.178Z,3.00
2018-06-12T15:15:11.919Z,2.80
2018-06-12T15:17:40.328Z,2.73
2018-06-12T15:20:08.674Z,2.77
2018-06-12T15:22:37.098Z,3.43
2018-06-12T15:25:05.625Z,3.53
2018-06-12T15:27:34.213Z,3.07
2018-06-12T15:30:02.818Z,2.93
2018-06-12T15:32:31.439Z,3.27
2018-06-12T15:34:59.960Z,3.80
2018-06-12T15:37:28.455Z,49.97
2018-06-12T15:39:56.835Z,55.13
2018-06-12T15:42:25.299Z,64.63
2018-06-12T15:44:53.985Z,22.20
2018-06-12T15:47:22.481Z,12.53
2018-06-12T15:49:50.931Z,8.20
2018-06-12T15:52:19.422Z,6.70
2018-06-12T15:54:48.003Z,7.10
2018-06-12T15:57:16.501Z,7.67
2018-06-12T15:59:45.174Z,6.23
2018-06-12T16:02:13.757Z,20.27
2018-06-12T16:04:42.196Z,14.70
2018-06-12T16:07:10.714Z,10.90
2018-06-12T16:09:39.098Z,6.40
2018-06-12T16:12:07.677Z,4.87
2018-06-12T16:14:36.080Z,3.90
2018-06-12T16:17:04.642Z,3.90
2018-06-12T16:19:33.328Z,3.63
2018-06-12T16:22:02.090Z,3.67
2018-06-12T16:24:30.699Z,4.50
2018-06-12T16:26:59.275Z,3.80
2018-06-12T16:29:27.756Z,7.13
2018-06-12T16:31:56.337Z,7.57
2018-06-12T16:34:24.925Z,9.53
2018-06-12T16:36:53.425Z,4.83
2018-06-12T16:39:21.858Z,4.33
2018-06-12T16:41:50.575Z,5.50
2018-06-12T16:44:19.053Z,4.20
2018-06-12T16:46:47.538Z,3.53
2018-06-12T16:49:16.320Z,5.50
2018-06-12T16:51:44.839Z,4.40
2018-06-12T16:54:13.241Z,3.93
2018-06-12T16:56:41.973Z,4.10
2018-06-12T16:59:10.550Z,3.33
2018-06-12T17:01:39.233Z,3.87
2018-06-12T17:04:07.818Z,4.50
2018-06-12T17:06:36.510Z,3.80
2018-06-12T17:09:06.579Z,3.70
2018-06-12T17:11:35.334Z,3.93
2018-06-12T17:14:03.994Z,5.03
2018-06-12T17:16:33.393Z,3.90
2018-06-12T17:19:02.282Z,3.77
2018-06-12T17:21:30.969Z,3.43
2018-06-12T17:23:59.615Z,3.47
2018-06-12T17:26:28.236Z,3.27
2018-06-12T17:28:56.722Z,3.00
2018-06-12T17:31:25.200Z,3.50
2018-06-12T17:33:53.984Z,3.33
2018-06-12T17:36:22.425Z,4.03
2018-06-12T17:38:50.960Z,3.07
2018-06-12T17:41:19.531Z,3.33
2018-06-12T17:43:48.112Z,3.07
2018-06-12T17:46:16.703Z,3.63
2018-06-12T17:48:45.276Z,3.07
2018-06-12T17:51:13.862Z,3.00
2018-06-12T17:53:42.348Z,3.90
2018-06-12T17:56:10.856Z,4.37
2018-06-12T17:58:39.403Z,3.30
2018-06-12T18:01:07.885Z,3.00
2018-06-12T18:03:36.364Z,4.40
2018-06-12T18:06:04.809Z,3.50
2018-06-12T18:08:33.287Z,3.50
2018-06-12T18:11:02.014Z,3.37
2018-06-12T18:13:30.703Z,3.67
2018-06-12T18:15:59.181Z,3.20
2018-06-12T18:18:27.700Z,3.30
2018-06-12T18:20:56.240Z,3.50
2018-06-12T18:23:24.827Z,3.63
2018-06-12T18:25:53.315Z,3.40
2018-06-12T18:28:21.725Z,3.90
2018-06-12T18:30:50.471Z,3.03
2018-06-12T18:33:19.158Z,3.30
2018-06-12T18:35:47.741Z,3.53
2018-06-12T18:38:16.239Z,3.70
2018-06-12T18:40:44.575Z,3.60
2018-06-12T18:43:13.185Z,3.70
2018-06-12T18:45:41.968Z,4.40
2018-06-12T18:48:10.476Z,4.07
2018-06-12T18:50:39.140Z,3.40
2018-06-12T18:53:07.720Z,3.87
2018-06-12T18:55:36.302Z,3.80
2018-06-12T18:58:04.787Z,3.47
2018-06-12T19:00:33.521Z,3.83
2018-06-12T19:03:01.951Z,3.57
2018-06-12T19:05:30.537Z,3.83
2018-06-12T19:07:59.125Z,3.67
2018-06-12T19:10:27.721Z,4.10
2018-06-12T19:12:56.251Z,3.77
2018-06-12T19:15:24.860Z,3.70
2018-06-12T19:17:53.361Z,3.43
2018-06-12T19:20:22.036Z,3.80
2018-06-12T19:22:50.524Z,6.37
2018-06-12T19:25:19.193Z,3.60
2018-06-12T19:27:47.785Z,4.47
2018-06-12T19:30:16.194Z,4.43
2018-06-12T19:32:44.704Z,4.17
2018-06-12T19:35:13.327Z,3.90
2018-06-12T19:37:41.903Z,3.70
2018-06-12T19:40:10.592Z,4.17
2018-06-12T19:42:39.277Z,4.20
2018-06-12T19:45:07.773Z,4.10
2018-06-12T19:47:36.441Z,3.80
2018-06-12T19:50:05.026Z,3.67
2018-06-12T19:52:33.609Z,4.07
2018-06-12T19:55:02.198Z,4.37
2018-06-12T19:57:30.775Z,4.33
2018-06-12T19:59:59.695Z,4.20
2018-06-12T20:02:30.174Z,4.17
2018-06-12T20:05:00.615Z,4.03
2018-06-12T20:07:30.049Z,3.90
2018-06-12T20:09:59.500Z,4.00
2018-06-12T20:12:29.118Z,3.87
2018-06-12T20:14:58.784Z,3.73
2018-06-12T20:17:28.405Z,4.13
2018-06-12T20:19:57.854Z,4.27
2018-06-12T20:22:27.332Z,4.00
2018-06-12T20:24:56.336Z,5.40
2018-06-12T20:27:25.553Z,19.30
2018-06-12T20:29:54.913Z,3.73
2018-06-12T20:32:24.587Z,4.03
2018-06-12T20:34:53.672Z,3.80
2018-06-12T20:37:22.768Z,4.00
2018-06-12T20:39:51.805Z,4.40
2018-06-12T20:42:20.423Z,3.90
2018-06-12T20:44:48.942Z,5.10
2018-06-12T20:47:17.281Z,4.10
2018-06-12T20:49:45.791Z,6.60
2018-06-12T20:52:14.454Z,4.80
2018-06-12T20:54:44.280Z,4.97
2018-06-12T20:57:14.000Z,5.10
2018-06-12T20:59:43.333Z,5.57
2018-06-12T21:02:12.226Z,6.40
2018-06-12T21:04:43.785Z,6.07
2018-06-12T21:07:12.530Z,6.70
2018-06-12T21:09:41.081Z,7.33
2018-06-12T21:12:09.664Z,6.37
2018-06-12T21:14:38.176Z,8.30
2018-06-12T21:17:06.728Z,13.43
2018-06-12T21:19:35.309Z,18.07
2018-06-12T21:22:03.810Z,14.47
2018-06-12T21:24:32.379Z,10.93
2018-06-12T21:27:00.957Z,8.90
2018-06-12T21:29:29.651Z,7.60
2018-06-12T21:31:58.155Z,6.60
2018-06-12T21:34:26.708Z,6.67
2018-06-12T21:36:55.394Z,6.43
2018-06-12T21:39:24.002Z,7.10
2018-06-12T21:41:52.661Z,6.47
2018-06-12T21:44:21.241Z,6.90
2018-06-12T21:46:49.735Z,7.17
2018-06-12T21:49:18.421Z,6.90
2018-06-12T21:51:47.095Z,7.23
2018-06-12T21:54:15.677Z,7.47
2018-06-12T21:56:44.452Z,7.53
2018-06-12T21:59:12.949Z,9.43
2018-06-12T22:01:42.452Z,7.40
2018-06-12T22:04:11.136Z,6.30
2018-06-12T22:06:39.555Z,6.70
2018-06-12T22:09:08.097Z,6.53
2018-06-12T22:11:36.589Z,8.20
2018-06-12T22:14:05.188Z,6.07
2018-06-12T22:16:33.949Z,5.70
2018-06-12T22:19:02.537Z,5.33
2018-06-12T22:21:31.054Z,5.20
2018-06-12T22:23:59.503Z,5.73
2018-06-12T22:26:28.076Z,7.03
2018-06-12T22:28:56.669Z,5.20
2018-06-12T22:31:25.078Z,4.27
2018-06-12T22:33:53.931Z,3.87
2018-06-12T22:36:22.512Z,3.73
2018-06-12T22:38:51.108Z,3.17
2018-06-12T22:41:19.543Z,2.50
2018-06-12T22:43:48.404Z,3.07
2018-06-12T22:46:17.075Z,2.67
2018-06-12T22:48:45.575Z,2.57
2018-06-12T22:51:14.217Z,3.40
2018-06-12T22:53:42.793Z,3.70
2018-06-12T22:56:11.258Z,3.00
2018-06-12T22:58:39.860Z,2.97
2018-06-12T23:01:08.358Z,2.43
2018-06-12T23:03:36.994Z,2.80
2018-06-12T23:06:05.630Z,2.70
2018-06-12T23:08:34.208Z,2.80
2018-06-12T23:11:02.676Z,2.70
2018-06-12T23:13:31.255Z,2.93
2018-06-12T23:15:59.842Z,2.27
2018-06-12T23:18:28.423Z,2.63
2018-06-12T23:22:05.314Z,2.17
2018-06-12T23:24:33.913Z,2.23
2018-06-12T23:27:02.510Z,1.90
2018-06-12T23:29:31.256Z,2.27
2018-06-12T23:31:59.702Z,2.43
2018-06-12T23:34:28.321Z,2.03
2018-06-12T23:36:56.801Z,2.00
2018-06-12T23:39:25.453Z,1.73
2018-06-12T23:41:53.934Z,2.20
2018-06-12T23:44:22.556Z,2.20
2018-06-12T23:46:51.133Z,2.73
2018-06-12T23:49:19.718Z,2.20
2018-06-12T23:51:48.303Z,2.30
2018-06-12T23:54:16.882Z,2.10
2018-06-12T23:56:45.250Z,1.90
2018-06-12T23:59:13.846Z,2.10
